createdAt,value
2022-12-11T00:01:15.223Z,97413.77
2022-12-11T00:03:48.705Z,97419.48
2022-12-11T00:06:23.505Z,97422.45
2022-12-11T00:08:57.097Z,97425.55
2022-12-11T00:11:30.322Z,97415.48
2022-12-11T00:14:04.550Z,97410.45
2022-12-11T00:16:37.561Z,97404.39
2022-12-11T00:19:11.025Z,97402.94
2022-12-11T00:21:44.698Z,97404.48
2022-12-11T00:24:18.139Z,97395.98
2022-12-11T00:26:51.091Z,97390.33
2022-12-11T00:29:25.532Z,97386.64
2022-12-11T00:31:59.269Z,97386.34
2022-12-11T00:34:32.084Z,97384.54
2022-12-11T00:37:08.849Z,97384.79
2022-12-11T00:39:41.896Z,97387.84
2022-12-11T00:42:14.565Z,97386.61
2022-12-11T00:44:46.402Z,97384.02
2022-12-11T00:47:18.653Z,97382.97
2022-12-11T00:49:50.800Z,97377.73
2022-12-11T00:52:25.269Z,97382.45
2022-12-11T00:54:59.922Z,97380.92
2022-12-11T00:57:31.779Z,97378.85
2022-12-11T01:00:05.880Z,97378.66
2022-12-11T01:02:39.717Z,97379.30
2022-12-11T01:05:15.151Z,97385.56
2022-12-11T01:07:48.717Z,97385.88
2022-12-11T01:10:26.405Z,97383.60
2022-12-11T01:13:01.804Z,97378.34
2022-12-11T01:15:41.599Z,97381.13
2022-12-11T01:18:15.385Z,97384.05
2022-12-11T01:20:48.151Z,97387.81
2022-12-11T01:23:20.680Z,97387.41
2022-12-11T01:25:53.686Z,97377.38
2022-12-11T01:28:27.896Z,97374.29
2022-12-11T01:31:02.701Z,97371.54
2022-12-11T01:33:35.298Z,97375.35
2022-12-11T01:36:14.081Z,97368.94
2022-12-11T01:38:48.238Z,97365.96
2022-12-11T01:41:21.334Z,97356.31
2022-12-11T01:44:06.530Z,97358.29
2022-12-11T01:46:39.822Z,97353.83
2022-12-11T01:49:15.276Z,97355.17
2022-12-11T01:51:53.686Z,97354.67
2022-12-11T01:54:29.181Z,97355.86
2022-12-11T01:57:04.205Z,97350.64
2022-12-11T01:59:42.269Z,97351.45
2022-12-11T02:02:18.615Z,97350.20
2022-12-11T02:04:50.850Z,97351.36
2022-12-11T02:07:24.981Z,97350.51
2022-12-11T02:09:57.831Z,97355.16
2022-12-11T02:12:38.441Z,97353.86
2022-12-11T02:15:16.931Z,97354.47
2022-12-11T02:17:53.460Z,97357.23
2022-12-11T02:20:31.007Z,97357.06
2022-12-11T02:23:29.619Z,97358.47
2022-12-11T02:26:13.678Z,97357.95
2022-12-11T02:28:49.102Z,97362.36
2022-12-11T02:31:31.084Z,97363.27
2022-12-11T02:34:07.070Z,97360.04
2022-12-11T02:36:45.612Z,97357.08
2022-12-11T02:39:22.340Z,97362.92
2022-12-11T02:41:54.906Z,97356.64
2022-12-11T02:44:30.777Z,97357.46
2022-12-11T02:47:03.939Z,97356.08
2022-12-11T02:49:36.803Z,97351.59
2022-12-11T02:52:16.529Z,97345.81
2022-12-11T02:54:51.324Z,97340.83
2022-12-11T02:57:27.192Z,97339.65
2022-12-11T03:00:00.072Z,97336.70
2022-12-11T03:02:35.384Z,97334.60
2022-12-11T03:05:10.957Z,97332.71
2022-12-11T03:07:46.012Z,97341.52
2022-12-11T03:10:23.498Z,97333.86
2022-12-11T03:12:57.853Z,97332.78
2022-12-11T03:15:35.538Z,97321.70
2022-12-11T03:18:15.391Z,97326.25
2022-12-11T03:20:50.237Z,97328.01
2022-12-11T03:23:26.928Z,97331.10
2022-12-11T03:26:00.907Z,97330.41
2022-12-11T03:28:38.474Z,97328.11
2022-12-11T03:31:13.805Z,97338.23
2022-12-11T03:33:50.351Z,97341.55
2022-12-11T03:36:27.135Z,97341.54
2022-12-11T03:39:05.582Z,97338.79
2022-12-11T03:41:41.378Z,97337.05
2022-12-11T03:44:15.067Z,97332.33
2022-12-11T03:46:48.220Z,97329.09
2022-12-11T03:49:23.509Z,97323.17
2022-12-11T03:51:59.148Z,97318.16
2022-12-11T03:54:34.387Z,97315.42
2022-12-11T03:57:12.784Z,97313.13
2022-12-11T03:59:45.366Z,97307.58
2022-12-11T04:02:18.007Z,97309.79
2022-12-11T04:04:51.621Z,97311.93
2022-12-11T04:07:25.039Z,97310.36
2022-12-11T04:09:58.441Z,97310.87
2022-12-11T04:12:30.742Z,97309.10
2022-12-11T04:15:04.303Z,97313.36
2022-12-11T04:17:58.445Z,97305.85
2022-12-11T04:20:51.636Z,97303.91
2022-12-11T04:23:42.162Z,97302.14
2022-12-11T04:26:16.731Z,97305.86
2022-12-11T04:28:50.125Z,97305.02
2022-12-11T04:31:24.897Z,97300.72
2022-12-11T04:33:58.176Z,97300.55
2022-12-11T04:36:30.420Z,97295.58
2022-12-11T04:39:04.571Z,97298.66
2022-12-11T04:41:39.046Z,97300.40
2022-12-11T04:44:11.131Z,97299.20
2022-12-11T04:46:44.698Z,97296.42
2022-12-11T04:49:17.527Z,97296.59
2022-12-11T04:51:50.915Z,97290.89
2022-12-11T04:54:26.007Z,97289.35
2022-12-11T04:56:58.750Z,97293.60
2022-12-11T04:59:32.321Z,97290.77
2022-12-11T05:02:06.568Z,97290.17
2022-12-11T05:04:40.584Z,97288.13
2022-12-11T05:07:15.299Z,97285.58
2022-12-11T05:09:50.674Z,97289.56
2022-12-11T05:12:23.927Z,97295.45
2022-12-11T05:14:56.684Z,97293.70
2022-12-11T05:17:28.875Z,97287.82
2022-12-11T05:20:01.578Z,97285.55
2022-12-11T05:22:35.005Z,97284.87
2022-12-11T05:25:09.520Z,97283.67
2022-12-11T05:27:42.652Z,97283.68
2022-12-11T05:30:16.285Z,97281.77
2022-12-11T05:32:48.546Z,97275.36
2022-12-11T05:35:24.064Z,97267.73
2022-12-11T05:37:57.000Z,97274.62
2022-12-11T05:40:30.073Z,97276.16
2022-12-11T05:43:03.644Z,97274.64
2022-12-11T05:45:36.963Z,97273.84
2022-12-11T05:48:09.877Z,97272.71
2022-12-11T05:50:43.098Z,97267.04
2022-12-11T05:53:15.593Z,97272.92
2022-12-11T05:55:48.975Z,97274.47
2022-12-11T05:58:23.302Z,97274.15
2022-12-11T06:00:55.382Z,97280.94
2022-12-11T06:03:27.383Z,97279.60
2022-12-11T06:06:05.383Z,97281.23
2022-12-11T06:08:38.632Z,97276.54
2022-12-11T06:11:11.961Z,97273.32
2022-12-11T06:13:47.086Z,97277.34
2022-12-11T06:16:22.850Z,97277.75
2022-12-11T06:18:58.194Z,97279.13
2022-12-11T06:21:34.248Z,97278.70
2022-12-11T06:24:11.231Z,97282.20
2022-12-11T06:26:45.635Z,97289.30
2022-12-11T06:29:18.875Z,97282.39
2022-12-11T06:31:51.790Z,97282.89
2022-12-11T06:34:25.373Z,97290.31
2022-12-11T06:36:57.939Z,97291.26
2022-12-11T06:39:34.345Z,97290.17
2022-12-11T06:42:07.693Z,97293.14
2022-12-11T06:44:39.532Z,97298.14
2022-12-11T06:47:13.856Z,97296.75
2022-12-11T06:49:49.311Z,97294.88
2022-12-11T06:52:22.767Z,97288.81
2022-12-11T06:54:54.890Z,97293.39
2022-12-11T06:57:27.627Z,97298.13
2022-12-11T06:59:59.860Z,97295.92
2022-12-11T07:02:33.146Z,97297.58
2022-12-11T07:05:05.928Z,97296.33
2022-12-11T07:07:38.743Z,97294.92
2022-12-11T07:10:14.557Z,97300.07
2022-12-11T07:12:48.199Z,97299.39
2022-12-11T07:15:21.041Z,97300.77
2022-12-11T07:17:54.326Z,97295.89
2022-12-11T07:20:27.605Z,97291.66
2022-12-11T07:23:00.583Z,97295.67
2022-12-11T07:25:33.642Z,97296.52
2022-12-11T07:28:09.127Z,97295.73
2022-12-11T07:30:43.275Z,97299.02
2022-12-11T07:33:18.958Z,97301.19
2022-12-11T07:35:51.743Z,97307.56
2022-12-11T07:38:25.066Z,97308.31
2022-12-11T07:41:03.785Z,97314.02
2022-12-11T07:43:36.372Z,97314.90
2022-12-11T07:46:12.579Z,97320.16
2022-12-11T07:48:46.734Z,97320.01
2022-12-11T07:51:20.518Z,97323.39
2022-12-11T07:53:55.971Z,97325.40
2022-12-11T07:56:29.135Z,97324.41
2022-12-11T07:59:03.850Z,97325.61
2022-12-11T08:01:37.591Z,97327.98
2022-12-11T08:04:12.197Z,97336.56
2022-12-11T08:06:46.038Z,97334.59
2022-12-11T08:09:24.367Z,97339.40
2022-12-11T08:11:59.752Z,97341.27
2022-12-11T08:14:33.940Z,97338.67
2022-12-11T08:17:07.508Z,97334.60
2022-12-11T08:19:40.297Z,97337.32
2022-12-11T08:22:14.520Z,97331.42
2022-12-11T08:24:47.487Z,97336.13
2022-12-11T08:27:21.926Z,97330.66
2022-12-11T08:29:54.063Z,97325.95
2022-12-11T08:32:27.593Z,97328.38
2022-12-11T08:35:04.353Z,97329.70
2022-12-11T08:37:36.790Z,97330.43
2022-12-11T08:40:12.575Z,97324.76
2022-12-11T08:42:45.161Z,97329.64
2022-12-11T08:45:19.228Z,97333.02
2022-12-11T08:47:54.498Z,97326.63
2022-12-11T08:50:27.078Z,97332.48
2022-12-11T08:53:00.678Z,97333.05
2022-12-11T08:55:37.480Z,97339.79
2022-12-11T08:58:09.490Z,97341.13
2022-12-11T09:00:44.579Z,97335.90
2022-12-11T09:03:18.213Z,97331.05
2022-12-11T09:05:50.447Z,97331.87
2022-12-11T09:08:23.569Z,97324.23
2022-12-11T09:10:56.628Z,97328.07
2022-12-11T09:13:30.440Z,97326.48
2022-12-11T09:16:04.988Z,97319.45
2022-12-11T09:18:38.479Z,97316.36
2022-12-11T09:21:14.116Z,97311.19
2022-12-11T09:23:46.900Z,97309.08
2022-12-11T09:26:20.424Z,97312.27
2022-12-11T09:28:54.921Z,97309.52
2022-12-11T09:31:28.753Z,97306.65
2022-12-11T09:34:02.068Z,97302.86
2022-12-11T09:36:37.151Z,97298.95
2022-12-11T09:39:12.437Z,97302.13
2022-12-11T09:41:51.322Z,97305.85
2022-12-11T09:44:35.715Z,97306.37
2022-12-11T09:47:21.234Z,97310.43
2022-12-11T09:49:58.546Z,97311.87
2022-12-11T09:52:36.556Z,97305.37
2022-12-11T09:55:16.497Z,97309.04
2022-12-11T09:57:55.664Z,97303.06
2022-12-11T10:00:33.160Z,97300.23
2022-12-11T10:03:29.384Z,97300.31
2022-12-11T10:06:08.292Z,97299.77
2022-12-11T10:08:46.774Z,97297.41
2022-12-11T10:11:32.271Z,97296.86
2022-12-11T10:14:10.270Z,97297.75
2022-12-11T10:16:47.310Z,97300.10
2022-12-11T10:19:23.211Z,97303.21
2022-12-11T10:21:56.492Z,97306.47
2022-12-11T10:25:09.471Z,97300.02
2022-12-11T10:27:31.559Z,97300.25
2022-12-11T10:30:18.486Z,97296.61
2022-12-11T10:33:05.170Z,97294.62
2022-12-11T10:35:40.550Z,97298.94
2022-12-11T10:38:23.665Z,97299.15
2022-12-11T10:40:59.613Z,97298.45
2022-12-11T10:43:41.697Z,97299.33
2022-12-11T10:46:19.943Z,97293.63
2022-12-11T10:48:55.486Z,97284.84
2022-12-11T10:51:35.158Z,97286.13
2022-12-11T10:54:18.935Z,97285.47
2022-12-11T10:56:54.965Z,97280.08
2022-12-11T10:59:30.032Z,97277.67
2022-12-11T11:02:04.032Z,97266.97
2022-12-11T11:04:38.556Z,97266.68
2022-12-11T11:07:20.776Z,97268.48
2022-12-11T11:09:56.447Z,97264.67
2022-12-11T11:12:31.879Z,97255.46
2022-12-11T11:15:07.959Z,97256.11
2022-12-11T11:17:55.085Z,97251.27
2022-12-11T11:20:30.501Z,97246.50
2022-12-11T11:23:10.539Z,97247.46
2022-12-11T11:25:54.273Z,97243.36
2022-12-11T11:28:29.476Z,97243.44
2022-12-11T11:31:05.930Z,97243.57
2022-12-11T11:33:46.024Z,97242.23
2022-12-11T11:36:24.233Z,97243.52
2022-12-11T11:39:08.890Z,97247.55
2022-12-11T11:41:48.237Z,97247.64
2022-12-11T11:44:25.229Z,97244.73
2022-12-11T11:47:05.453Z,97255.39
2022-12-11T11:49:52.302Z,97254.61
2022-12-11T11:52:31.071Z,97253.70
2022-12-11T11:55:10.276Z,97249.80
2022-12-11T11:57:51.061Z,97248.17
2022-12-11T12:00:34.378Z,97248.72
2022-12-11T12:03:14.049Z,97251.95
2022-12-11T12:05:51.740Z,97248.01
2022-12-11T12:08:31.387Z,97249.66
2022-12-11T12:11:11.183Z,97251.91
2022-12-11T12:13:50.478Z,97254.16
2022-12-11T12:16:55.897Z,97258.24
2022-12-11T12:19:45.353Z,97249.51
2022-12-11T12:22:28.653Z,97256.14
2022-12-11T12:25:13.635Z,97255.34
2022-12-11T12:27:53.463Z,97256.45
2022-12-11T12:30:26.686Z,97244.45
2022-12-11T12:33:18.431Z,97241.92
2022-12-11T12:36:02.081Z,97236.73
2022-12-11T12:38:50.117Z,97235.48
2022-12-11T12:41:29.634Z,97237.20
2022-12-11T12:44:11.861Z,97236.76
2022-12-11T12:46:54.525Z,97244.54
2022-12-11T12:49:39.257Z,97252.39
2022-12-11T12:52:17.361Z,97250.17
2022-12-11T12:55:06.769Z,97255.81
2022-12-11T12:57:40.670Z,97255.67
2022-12-11T13:00:26.861Z,97256.02
2022-12-11T13:03:00.618Z,97261.33
2022-12-11T13:05:37.273Z,97262.59
2022-12-11T13:08:10.526Z,97262.95
2022-12-11T13:10:45.283Z,97262.20
2022-12-11T13:13:35.349Z,97270.27
2022-12-11T13:16:27.293Z,97275.03
2022-12-11T13:19:01.354Z,97275.11
2022-12-11T13:21:38.398Z,97273.16
2022-12-11T13:24:27.912Z,97277.91
2022-12-11T13:27:12.236Z,97279.70
2022-12-11T13:29:47.400Z,97289.87
2022-12-11T13:32:29.087Z,97293.21
2022-12-11T13:35:06.260Z,97290.14
2022-12-11T13:37:42.752Z,97282.69
2022-12-11T13:40:20.961Z,97284.40
2022-12-11T13:42:55.942Z,97286.63
2022-12-11T13:45:31.035Z,97287.39
2022-12-11T13:48:05.152Z,97289.55
2022-12-11T13:50:38.020Z,97289.31
2022-12-11T13:53:19.248Z,97290.08
2022-12-11T13:56:00.580Z,97293.02
2022-12-11T13:58:35.417Z,97292.02
2022-12-11T14:01:11.491Z,97296.51
2022-12-11T14:03:49.532Z,97301.45
2022-12-11T14:06:22.616Z,97300.66
2022-12-11T14:08:58.144Z,97305.63
2022-12-11T14:11:32.623Z,97307.82
2022-12-11T14:14:08.824Z,97304.47
2022-12-11T14:16:41.565Z,97306.05
2022-12-11T14:19:19.621Z,97304.63
2022-12-11T14:22:02.552Z,97312.38
2022-12-11T14:24:35.570Z,97316.73
2022-12-11T14:27:20.210Z,97319.41
2022-12-11T14:29:53.697Z,97318.05
2022-12-11T14:32:32.104Z,97319.42
2022-12-11T14:35:06.245Z,97311.16
2022-12-11T14:37:40.233Z,97311.30
2022-12-11T14:40:21.779Z,97313.48
2022-12-11T14:43:00.336Z,97310.63
2022-12-11T14:45:37.203Z,97310.02
2022-12-11T14:48:12.163Z,97311.71
2022-12-11T14:50:50.451Z,97308.02
2022-12-11T14:53:25.533Z,97304.00
2022-12-11T14:56:03.840Z,97308.20
2022-12-11T14:58:40.953Z,97311.05
2022-12-11T15:01:26.791Z,97306.48
2022-12-11T15:04:18.484Z,97308.13
2022-12-11T15:06:52.443Z,97304.56
2022-12-11T15:09:30.005Z,97301.50
2022-12-11T15:12:11.765Z,97301.65
2022-12-11T15:14:49.589Z,97301.27
2022-12-11T15:17:23.189Z,97308.77
2022-12-11T15:19:57.392Z,97309.09
2022-12-11T15:22:35.423Z,97313.38
2022-12-11T15:25:18.884Z,97316.27
2022-12-11T15:27:54.137Z,97318.13
2022-12-11T15:30:33.764Z,97317.52
2022-12-11T15:33:24.379Z,97318.49
2022-12-11T15:35:59.377Z,97323.31
2022-12-11T15:38:43.796Z,97331.17
2022-12-11T15:41:21.516Z,97336.63
2022-12-11T15:43:58.941Z,97334.97
2022-12-11T15:46:37.778Z,97332.45
2022-12-11T15:49:15.199Z,97331.87
2022-12-11T15:51:48.263Z,97335.67
2022-12-11T15:54:21.740Z,97337.80
2022-12-11T15:56:56.171Z,97343.59
2022-12-11T15:59:28.968Z,97343.48
2022-12-11T16:02:02.732Z,97343.21
2022-12-11T16:04:35.933Z,97341.73
2022-12-11T16:07:10.611Z,97340.40
2022-12-11T16:09:45.065Z,97347.91
2022-12-11T16:12:19.149Z,97350.06
2022-12-11T16:14:52.988Z,97348.10
2022-12-11T16:17:27.113Z,97348.48
2022-12-11T16:20:00.186Z,97348.17
2022-12-11T16:22:33.263Z,97349.36
2022-12-11T16:25:06.946Z,97349.90
2022-12-11T16:27:40.757Z,97348.23
2022-12-11T16:30:16.692Z,97347.27
2022-12-11T16:32:48.672Z,97349.13
2022-12-11T16:35:23.921Z,97352.27
2022-12-11T16:37:59.530Z,97352.66
2022-12-11T16:40:32.267Z,97355.75
2022-12-11T16:43:08.927Z,97362.95
2022-12-11T16:45:43.131Z,97361.51
2022-12-11T16:48:17.503Z,97360.54
2022-12-11T16:50:57.697Z,97358.50
2022-12-11T16:53:55.476Z,97359.84
2022-12-11T16:56:34.965Z,97358.54
2022-12-11T16:59:43.270Z,97358.30
2022-12-11T17:02:36.920Z,97360.67
2022-12-11T17:05:10.837Z,97359.69
2022-12-11T17:07:45.322Z,97363.23
2022-12-11T17:10:19.566Z,97364.08
2022-12-11T17:13:18.080Z,97366.72
2022-12-11T17:16:07.875Z,97370.36
2022-12-11T17:18:41.661Z,97373.02
2022-12-11T17:21:16.246Z,97373.39
2022-12-11T17:23:51.878Z,97375.39
2022-12-11T17:26:25.688Z,97370.41
2022-12-11T17:28:59.187Z,97364.70
2022-12-11T17:31:33.052Z,97369.45
2022-12-11T17:34:06.841Z,97367.38
2022-12-11T17:36:40.472Z,97364.86
2022-12-11T17:39:12.417Z,97365.08
2022-12-11T17:41:46.797Z,97364.14
2022-12-11T17:44:19.157Z,97362.04
2022-12-11T17:46:53.800Z,97366.08
2022-12-11T17:49:27.345Z,97367.35
2022-12-11T17:52:04.021Z,97368.30
2022-12-11T17:54:36.614Z,97369.05
2022-12-11T17:57:10.388Z,97370.21
2022-12-11T17:59:44.324Z,97373.65
2022-12-11T18:02:17.746Z,97371.78
2022-12-11T18:04:52.237Z,97373.40
2022-12-11T18:07:26.691Z,97375.60
2022-12-11T18:10:00.331Z,97378.29
2022-12-11T18:12:37.286Z,97382.18
2022-12-11T18:15:12.180Z,97386.96
2022-12-11T18:17:47.889Z,97381.66
2022-12-11T18:20:21.117Z,97385.95
2022-12-11T18:22:53.366Z,97382.08
2022-12-11T18:25:28.115Z,97379.39
2022-12-11T18:28:01.471Z,97378.02
2022-12-11T18:30:36.801Z,97376.58
2022-12-11T18:33:11.206Z,97378.38
2022-12-11T18:35:44.995Z,97373.64
2022-12-11T18:38:17.822Z,97370.50
2022-12-11T18:40:52.752Z,97369.51
2022-12-11T18:43:25.554Z,97371.21
2022-12-11T18:46:01.814Z,97371.73
2022-12-11T18:48:34.556Z,97372.53
2022-12-11T18:51:11.466Z,97371.86
2022-12-11T18:53:44.674Z,97370.86
2022-12-11T18:56:19.474Z,97366.84
2022-12-11T18:58:52.606Z,97376.53
2022-12-11T19:01:27.536Z,97372.80
2022-12-11T19:04:10.435Z,97377.09
2022-12-11T19:06:45.282Z,97378.79
2022-12-11T19:09:18.121Z,97379.35
2022-12-11T19:11:50.999Z,97374.52
2022-12-11T19:14:27.690Z,97376.95
2022-12-11T19:17:00.559Z,97375.98
2022-12-11T19:19:34.570Z,97370.27
2022-12-11T19:22:08.041Z,97379.95
2022-12-11T19:24:41.078Z,97379.77
2022-12-11T19:27:14.675Z,97379.31
2022-12-11T19:29:48.155Z,97377.54
2022-12-11T19:32:21.407Z,97377.30
2022-12-11T19:34:59.698Z,97374.69
2022-12-11T19:37:33.934Z,97373.27
2022-12-11T19:40:10.015Z,97374.15
2022-12-11T19:42:43.754Z,97372.62
2022-12-11T19:45:16.240Z,97378.21
2022-12-11T19:47:48.911Z,97374.63
2022-12-11T19:50:22.326Z,97373.30
2022-12-11T19:52:54.875Z,97375.51
2022-12-11T19:55:27.388Z,97375.40
2022-12-11T19:57:59.834Z,97373.16
2022-12-11T20:00:32.977Z,97370.94
2022-12-11T20:03:06.447Z,97366.80
2022-12-11T20:05:41.543Z,97369.10
2022-12-11T20:11:17.340Z,97371.33
2022-12-11T20:13:57.341Z,97372.30
2022-12-11T20:17:02.050Z,97372.63
2022-12-11T20:19:27.756Z,97372.39
2022-12-11T20:22:02.555Z,97376.00
2022-12-11T20:24:34.926Z,97377.77
2022-12-11T20:27:07.707Z,97377.42
2022-12-11T20:29:40.523Z,97376.59
2022-12-11T20:32:14.286Z,97375.40
2022-12-11T20:34:48.663Z,97376.96
2022-12-11T20:37:21.601Z,97383.77
2022-12-11T20:39:55.461Z,97385.61
2022-12-11T20:42:30.238Z,97384.65
2022-12-11T20:45:02.062Z,97383.45
2022-12-11T20:47:37.339Z,97381.81
2022-12-11T20:50:11.514Z,97375.54
2022-12-11T20:52:46.620Z,97381.19
2022-12-11T20:55:19.269Z,97379.14
2022-12-11T20:57:52.569Z,97384.67
2022-12-11T21:00:26.795Z,97377.81
2022-12-11T21:02:58.739Z,97382.56
2022-12-11T21:05:36.193Z,97381.10
2022-12-11T21:08:10.245Z,97376.86
2022-12-11T21:10:46.438Z,97377.64
2022-12-11T21:13:20.526Z,97378.03
2022-12-11T21:15:56.727Z,97374.21
2022-12-11T21:18:29.470Z,97373.61
2022-12-11T21:21:03.071Z,97373.77
2022-12-11T21:23:36.903Z,97377.21
2022-12-11T21:26:09.936Z,97377.07
2022-12-11T21:28:42.823Z,97376.09
2022-12-11T21:31:18.047Z,97374.04
2022-12-11T21:33:51.962Z,97373.29
2022-12-11T21:36:26.109Z,97377.13
2022-12-11T21:39:00.964Z,97376.90
2022-12-11T21:41:34.352Z,97377.69
2022-12-11T21:47:04.946Z,97378.83
2022-12-11T21:49:39.848Z,97379.72
2022-12-11T21:52:14.226Z,97380.65
2022-12-11T21:54:47.831Z,97383.31
2022-12-11T21:57:26.484Z,97381.52
2022-12-11T22:00:05.756Z,97378.39
2022-12-11T22:02:41.069Z,97377.23
2022-12-11T22:05:17.216Z,97376.14
2022-12-11T22:07:50.689Z,97379.13
2022-12-11T22:10:24.011Z,97375.64
2022-12-11T22:12:59.644Z,97372.70
2022-12-11T22:15:34.705Z,97375.36
2022-12-11T22:18:07.635Z,97374.13
2022-12-11T22:20:39.688Z,97369.98
2022-12-11T22:23:11.777Z,97371.91
2022-12-11T22:25:45.537Z,97370.78
2022-12-11T22:28:21.037Z,97373.45
2022-12-11T22:30:55.738Z,97367.98
2022-12-11T22:33:28.527Z,97367.94
2022-12-11T22:36:01.105Z,97369.69
2022-12-11T22:38:34.860Z,97370.53
2022-12-11T22:41:16.253Z,97369.30
2022-12-11T22:43:52.219Z,97367.90
2022-12-11T22:46:26.948Z,97368.52
2022-12-11T22:49:01.365Z,97368.73
2022-12-11T22:51:35.784Z,97380.73
2022-12-11T22:54:09.099Z,97377.15
2022-12-11T22:56:44.140Z,97373.13
2022-12-11T22:59:16.653Z,97367.70
2022-12-11T23:01:48.782Z,97365.32
2022-12-11T23:04:22.358Z,97365.29
2022-12-11T23:06:57.114Z,97359.47
2022-12-11T23:09:30.712Z,97358.33
2022-12-11T23:12:05.801Z,97353.52
2022-12-11T23:14:39.322Z,97355.65
2022-12-11T23:17:12.034Z,97355.01
2022-12-11T23:19:46.167Z,97354.32
2022-12-11T23:22:18.823Z,97354.90
2022-12-11T23:24:51.960Z,97354.64
2022-12-11T23:27:25.209Z,97357.96
2022-12-11T23:29:58.981Z,97358.69
2022-12-11T23:32:30.802Z,97358.48
2022-12-11T23:35:05.015Z,97360.29
2022-12-11T23:37:40.583Z,97357.60
2022-12-11T23:40:15.349Z,97353.76
2022-12-11T23:42:47.140Z,97353.80
2022-12-11T23:45:21.164Z,97356.16
2022-12-11T23:47:54.335Z,97353.85
2022-12-11T23:50:27.901Z,97355.07
2022-12-11T23:53:02.346Z,97351.11
2022-12-11T23:55:36.017Z,97348.37
2022-12-11T23:58:07.933Z,97351.04
